createdAt,value
2018-02-27T11:41:02.204Z,31.40
2018-02-27T11:43:31.582Z,30.80
2018-02-27T11:53:53.127Z,30.00
2018-02-27T12:19:48.763Z,29.10
2018-02-27T12:22:23.081Z,30.40
2018-02-27T14:51:57.376Z,46.30
2018-02-27T14:54:36.130Z,46.10
2018-02-27T14:57:19.471Z,46.00
2018-02-27T14:59:48.997Z,46.10
2018-02-27T15:02:20.695Z,44.50
2018-02-27T15:07:36.930Z,43.90
2018-02-27T15:10:07.989Z,44.50
2018-02-27T15:12:43.128Z,45.40
2018-02-27T15:15:17.160Z,46.70
2018-02-27T15:17:51.648Z,46.00
2018-02-27T15:20:22.395Z,46.90
2018-02-27T15:22:52.817Z,47.60
2018-02-27T15:25:23.009Z,47.60
2018-02-27T15:27:52.475Z,48.40
2018-02-27T15:30:29.071Z,48.30
2018-02-27T15:32:58.566Z,47.70
2018-02-27T15:35:28.077Z,47.40
2018-02-27T15:57:27.570Z,48.80
2018-02-27T16:09:27.926Z,49.00
2018-02-27T16:19:57.575Z,48.80
2018-02-27T16:22:36.607Z,48.30
2018-02-27T16:25:05.956Z,48.40
2018-02-27T16:27:35.406Z,48.00
2018-02-27T16:45:50.765Z,47.20
2018-02-27T18:21:43.489Z,39.80
2018-02-27T18:24:14.992Z,40.70
2018-02-27T18:26:57.953Z,40.70
2018-02-27T18:32:13.796Z,39.90
2018-02-27T18:34:43.211Z,39.90
2018-02-27T18:37:12.657Z,40.00
2018-02-27T18:39:42.174Z,39.50
2018-02-27T18:42:11.624Z,39.90
2018-02-27T18:44:41.007Z,39.30
2018-02-27T18:47:10.752Z,39.60
2018-02-27T18:49:40.168Z,39.70
2018-02-27T18:52:09.582Z,39.20
2018-02-27T18:54:39.030Z,38.90
2018-02-27T18:57:09.623Z,38.60
2018-02-27T18:59:42.047Z,38.80
2018-02-27T19:02:11.669Z,39.10
2018-02-27T19:04:49.419Z,39.50
2018-02-27T19:26:38.288Z,37.90
2018-02-27T19:29:09.843Z,38.90
2018-02-27T19:31:55.022Z,38.20
2018-02-27T19:59:32.929Z,38.60
2018-02-27T20:04:41.921Z,37.60
